sensor_id;sensor_type;location;lat;lon;timestamp;P1;durP1;ratioP1;P2;durP2;ratioP2
68657;SDS011;55639;53.480;-2.228;2022-09-02T00:01:40;0.88;;;0.80;;
68657;SDS011;55639;53.480;-2.228;2022-09-02T00:04:10;1.40;;;1.00;;
68657;SDS011;55639;53.480;-2.228;2022-09-02T00:06:38;0.80;;;0.80;;
68657;SDS011;55639;53.480;-2.228;2022-09-02T00:09:04;1.17;;;0.80;;
68657;SDS011;55639;53.480;-2.228;2022-09-02T00:11:31;1.13;;;0.88;;
68657;SDS011;55639;53.480;-2.228;2022-09-02T00:14:01;0.90;;;0.77;;
68657;SDS011;55639;53.480;-2.228;2022-09-02T00:16:29;0.98;;;0.88;;
68657;SDS011;55639;53.480;-2.228;2022-09-02T00:18:57;0.77;;;0.77;;
68657;SDS011;55639;53.480;-2.228;2022-09-02T00:21:23;1.02;;;0.90;;
68657;SDS011;55639;53.480;-2.228;2022-09-02T00:23:49;1.55;;;1.02;;
68657;SDS011;55639;53.480;-2.228;2022-09-02T00:26:15;1.00;;;0.90;;
68657;SDS011;55639;53.480;-2.228;2022-09-02T00:28:41;1.02;;;0.90;;
68657;SDS011;55639;53.480;-2.228;2022-09-02T00:31:07;1.55;;;1.02;;
68657;SDS011;55639;53.480;-2.228;2022-09-02T00:33:33;0.88;;;0.80;;
68657;SDS011;55639;53.480;-2.228;2022-09-02T00:36:00;0.70;;;0.70;;
68657;SDS011;55639;53.480;-2.228;2022-09-02T00:38:27;1.20;;;0.90;;
68657;SDS011;55639;53.480;-2.228;2022-09-02T00:40:55;1.00;;;0.90;;
68657;SDS011;55639;53.480;-2.228;2022-09-02T00:43:24;1.25;;;1.15;;
68657;SDS011;55639;53.480;-2.228;2022-09-02T00:46:06;1.00;;;0.90;;
68657;SDS011;55639;53.480;-2.228;2022-09-02T00:48:32;1.10;;;1.00;;
68657;SDS011;55639;53.480;-2.228;2022-09-02T00:51:00;1.23;;;0.93;;
68657;SDS011;55639;53.480;-2.228;2022-09-02T00:53:27;1.02;;;0.90;;
68657;SDS011;55639;53.480;-2.228;2022-09-02T00:55:54;1.10;;;1.00;;
68657;SDS011;55639;53.480;-2.228;2022-09-02T00:58:21;1.20;;;1.10;;
68657;SDS011;55639;53.480;-2.228;2022-09-02T01:00:51;1.05;;;1.00;;
68657;SDS011;55639;53.480;-2.228;2022-09-02T01:03:22;1.20;;;1.00;;
68657;SDS011;55639;53.480;-2.228;2022-09-02T01:05:51;0.95;;;0.95;;
68657;SDS011;55639;53.480;-2.228;2022-09-02T01:08:26;1.30;;;1.20;;
68657;SDS011;55639;53.480;-2.228;2022-09-02T01:10:56;1.10;;;0.98;;
68657;SDS011;55639;53.480;-2.228;2022-09-02T01:13:24;1.30;;;1.20;;
68657;SDS011;55639;53.480;-2.228;2022-09-02T01:16:04;1.15;;;0.90;;
68657;SDS011;55639;53.480;-2.228;2022-09-02T01:18:49;1.10;;;1.00;;
68657;SDS011;55639;53.480;-2.228;2022-09-02T01:21:18;1.98;;;1.10;;
68657;SDS011;55639;53.480;-2.228;2022-09-02T01:23:44;1.25;;;1.15;;
68657;SDS011;55639;53.480;-2.228;2022-09-02T01:26:11;1.20;;;1.10;;
68657;SDS011;55639;53.480;-2.228;2022-09-02T01:28:37;1.05;;;0.95;;
68657;SDS011;55639;53.480;-2.228;2022-09-02T01:31:03;1.23;;;1.13;;
68657;SDS011;55639;53.480;-2.228;2022-09-02T01:33:29;1.13;;;1.02;;
68657;SDS011;55639;53.480;-2.228;2022-09-02T01:35:54;1.02;;;1.00;;
68657;SDS011;55639;53.480;-2.228;2022-09-02T01:38:21;1.10;;;1.08;;
68657;SDS011;55639;53.480;-2.228;2022-09-02T01:40:47;1.40;;;1.30;;
68657;SDS011;55639;53.480;-2.228;2022-09-02T01:43:17;1.20;;;1.08;;
68657;SDS011;55639;53.480;-2.228;2022-09-02T01:45:45;1.37;;;1.27;;
68657;SDS011;55639;53.480;-2.228;2022-09-02T01:48:12;1.67;;;1.30;;
68657;SDS011;55639;53.480;-2.228;2022-09-02T01:50:39;1.40;;;1.20;;
68657;SDS011;55639;53.480;-2.228;2022-09-02T01:53:07;1.52;;;1.42;;
68657;SDS011;55639;53.480;-2.228;2022-09-02T01:55:33;1.58;;;1.20;;
68657;SDS011;55639;53.480;-2.228;2022-09-02T01:57:59;1.45;;;1.20;;
68657;SDS011;55639;53.480;-2.228;2022-09-02T02:00:25;1.38;;;1.27;;
68657;SDS011;55639;53.480;-2.228;2022-09-02T02:02:52;1.25;;;1.15;;
68657;SDS011;55639;53.480;-2.228;2022-09-02T02:05:17;1.23;;;1.13;;
68657;SDS011;55639;53.480;-2.228;2022-09-02T02:07:43;1.02;;;1.00;;
68657;SDS011;55639;53.480;-2.228;2022-09-02T02:10:09;1.45;;;1.35;;
68657;SDS011;55639;53.480;-2.228;2022-09-02T02:12:37;1.60;;;1.50;;
68657;SDS011;55639;53.480;-2.228;2022-09-02T02:15:04;1.23;;;1.13;;
68657;SDS011;55639;53.480;-2.228;2022-09-02T02:17:36;1.27;;;1.20;;
68657;SDS011;55639;53.480;-2.228;2022-09-02T02:20:02;1.42;;;1.33;;
68657;SDS011;55639;53.480;-2.228;2022-09-02T02:22:28;1.25;;;1.10;;
68657;SDS011;55639;53.480;-2.228;2022-09-02T02:24:55;1.23;;;1.13;;
68657;SDS011;55639;53.480;-2.228;2022-09-02T02:27:21;1.48;;;1.20;;
68657;SDS011;55639;53.480;-2.228;2022-09-02T02:29:46;1.50;;;1.40;;
68657;SDS011;55639;53.480;-2.228;2022-09-02T02:32:12;1.38;;;1.27;;
68657;SDS011;55639;53.480;-2.228;2022-09-02T02:34:38;1.38;;;1.08;;
68657;SDS011;55639;53.480;-2.228;2022-09-02T02:37:04;1.30;;;1.20;;
68657;SDS011;55639;53.480;-2.228;2022-09-02T02:39:30;1.38;;;1.27;;
68657;SDS011;55639;53.480;-2.228;2022-09-02T02:41:56;1.67;;;1.33;;
68657;SDS011;55639;53.480;-2.228;2022-09-02T02:44:22;1.30;;;1.20;;
68657;SDS011;55639;53.480;-2.228;2022-09-02T02:46:48;1.50;;;1.20;;
68657;SDS011;55639;53.480;-2.228;2022-09-02T02:49:14;1.30;;;1.20;;
68657;SDS011;55639;53.480;-2.228;2022-09-02T02:51:40;1.30;;;1.20;;
68657;SDS011;55639;53.480;-2.228;2022-09-02T02:54:06;1.50;;;1.40;;
68657;SDS011;55639;53.480;-2.228;2022-09-02T02:56:32;1.60;;;1.50;;
68657;SDS011;55639;53.480;-2.228;2022-09-02T02:58:58;1.30;;;1.20;;
68657;SDS011;55639;53.480;-2.228;2022-09-02T03:01:27;1.33;;;1.20;;
68657;SDS011;55639;53.480;-2.228;2022-09-02T03:03:55;1.35;;;1.20;;
68657;SDS011;55639;53.480;-2.228;2022-09-02T03:06:21;1.40;;;1.30;;
68657;SDS011;55639;53.480;-2.228;2022-09-02T03:08:47;1.58;;;1.48;;
68657;SDS011;55639;53.480;-2.228;2022-09-02T03:11:13;1.42;;;1.33;;
68657;SDS011;55639;53.480;-2.228;2022-09-02T03:13:40;1.50;;;1.13;;
68657;SDS011;55639;53.480;-2.228;2022-09-02T03:16:06;1.38;;;1.27;;
68657;SDS011;55639;53.480;-2.228;2022-09-02T03:18:33;1.30;;;1.20;;
68657;SDS011;55639;53.480;-2.228;2022-09-02T03:20:59;1.50;;;1.40;;
68657;SDS011;55639;53.480;-2.228;2022-09-02T03:23:25;1.30;;;1.20;;
68657;SDS011;55639;53.480;-2.228;2022-09-02T03:25:51;1.25;;;1.02;;
68657;SDS011;55639;53.480;-2.228;2022-09-02T03:28:16;1.50;;;1.40;;
68657;SDS011;55639;53.480;-2.228;2022-09-02T03:30:43;1.40;;;1.30;;
68657;SDS011;55639;53.480;-2.228;2022-09-02T03:33:10;1.40;;;1.30;;
68657;SDS011;55639;53.480;-2.228;2022-09-02T03:35:40;1.55;;;1.45;;
68657;SDS011;55639;53.480;-2.228;2022-09-02T03:38:08;1.23;;;1.13;;
68657;SDS011;55639;53.480;-2.228;2022-09-02T03:40:35;1.27;;;1.20;;
68657;SDS011;55639;53.480;-2.228;2022-09-02T03:43:00;1.45;;;1.33;;
68657;SDS011;55639;53.480;-2.228;2022-09-02T03:45:26;1.40;;;1.30;;
68657;SDS011;55639;53.480;-2.228;2022-09-02T03:47:53;1.38;;;1.27;;
68657;SDS011;55639;53.480;-2.228;2022-09-02T03:50:23;1.40;;;1.30;;
68657;SDS011;55639;53.480;-2.228;2022-09-02T03:52:51;1.40;;;1.30;;
68657;SDS011;55639;53.480;-2.228;2022-09-02T03:55:17;1.45;;;1.33;;
68657;SDS011;55639;53.480;-2.228;2022-09-02T03:57:43;1.20;;;1.10;;
68657;SDS011;55639;53.480;-2.228;2022-09-02T04:00:10;1.17;;;1.17;;
68657;SDS011;55639;53.480;-2.228;2022-09-02T04:02:38;1.33;;;1.23;;
68657;SDS011;55639;53.480;-2.228;2022-09-02T04:05:04;1.30;;;1.20;;
68657;SDS011;55639;53.480;-2.228;2022-09-02T04:07:30;1.73;;;1.35;;
68657;SDS011;55639;53.480;-2.228;2022-09-02T04:09:55;1.10;;;1.10;;
68657;SDS011;55639;53.480;-2.228;2022-09-02T04:12:21;1.00;;;1.00;;
68657;SDS011;55639;53.480;-2.228;2022-09-02T04:14:47;1.33;;;1.23;;
68657;SDS011;55639;53.480;-2.228;2022-09-02T04:17:13;2.03;;;1.17;;
68657;SDS011;55639;53.480;-2.228;2022-09-02T04:19:39;1.20;;;1.10;;
68657;SDS011;55639;53.480;-2.228;2022-09-02T04:22:05;1.55;;;1.30;;
68657;SDS011;55639;53.480;-2.228;2022-09-02T04:24:31;1.50;;;1.40;;
68657;SDS011;55639;53.480;-2.228;2022-09-02T04:26:58;1.08;;;1.08;;
68657;SDS011;55639;53.480;-2.228;2022-09-02T04:29:24;1.08;;;1.08;;
68657;SDS011;55639;53.480;-2.228;2022-09-02T04:31:50;1.30;;;1.20;;
68657;SDS011;55639;53.480;-2.228;2022-09-02T04:34:16;1.40;;;1.30;;
68657;SDS011;55639;53.480;-2.228;2022-09-02T04:36:42;1.40;;;1.30;;
68657;SDS011;55639;53.480;-2.228;2022-09-02T04:39:08;1.30;;;1.20;;
68657;SDS011;55639;53.480;-2.228;2022-09-02T04:41:34;1.10;;;1.10;;
68657;SDS011;55639;53.480;-2.228;2022-09-02T04:44:00;1.42;;;1.33;;
68657;SDS011;55639;53.480;-2.228;2022-09-02T04:46:26;1.33;;;1.20;;
68657;SDS011;55639;53.480;-2.228;2022-09-02T04:48:53;1.48;;;1.38;;
68657;SDS011;55639;53.480;-2.228;2022-09-02T04:51:20;1.45;;;1.35;;
68657;SDS011;55639;53.480;-2.228;2022-09-02T04:53:48;1.40;;;1.30;;
68657;SDS011;55639;53.480;-2.228;2022-09-02T04:56:16;1.58;;;1.30;;
68657;SDS011;55639;53.480;-2.228;2022-09-02T04:58:45;1.30;;;1.20;;
68657;SDS011;55639;53.480;-2.228;2022-09-02T05:01:12;1.50;;;1.40;;
68657;SDS011;55639;53.480;-2.228;2022-09-02T05:03:41;2.45;;;1.33;;
68657;SDS011;55639;53.480;-2.228;2022-09-02T05:06:07;1.48;;;1.38;;
68657;SDS011;55639;53.480;-2.228;2022-09-02T05:08:34;1.85;;;1.30;;
68657;SDS011;55639;53.480;-2.228;2022-09-02T05:11:06;1.60;;;1.50;;
68657;SDS011;55639;53.480;-2.228;2022-09-02T05:13:32;1.45;;;1.35;;
68657;SDS011;55639;53.480;-2.228;2022-09-02T05:15:58;1.35;;;1.25;;
68657;SDS011;55639;53.480;-2.228;2022-09-02T05:18:23;1.23;;;1.13;;
68657;SDS011;55639;53.480;-2.228;2022-09-02T05:20:49;1.50;;;1.40;;
68657;SDS011;55639;53.480;-2.228;2022-09-02T05:23:15;1.50;;;1.40;;
68657;SDS011;55639;53.480;-2.228;2022-09-02T05:25:41;1.23;;;1.13;;
68657;SDS011;55639;53.480;-2.228;2022-09-02T05:28:07;1.30;;;1.20;;
68657;SDS011;55639;53.480;-2.228;2022-09-02T05:30:33;1.48;;;1.38;;
68657;SDS011;55639;53.480;-2.228;2022-09-02T05:33:00;1.50;;;1.40;;
68657;SDS011;55639;53.480;-2.228;2022-09-02T05:35:26;1.42;;;1.33;;
68657;SDS011;55639;53.480;-2.228;2022-09-02T05:37:52;1.38;;;1.27;;
68657;SDS011;55639;53.480;-2.228;2022-09-02T05:40:17;1.30;;;1.20;;
68657;SDS011;55639;53.480;-2.228;2022-09-02T05:42:43;1.50;;;1.40;;
68657;SDS011;55639;53.480;-2.228;2022-09-02T05:45:09;1.60;;;1.50;;
68657;SDS011;55639;53.480;-2.228;2022-09-02T05:47:35;1.38;;;1.27;;
68657;SDS011;55639;53.480;-2.228;2022-09-02T05:50:02;1.40;;;1.30;;
68657;SDS011;55639;53.480;-2.228;2022-09-02T05:52:28;1.45;;;1.35;;
68657;SDS011;55639;53.480;-2.228;2022-09-02T05:54:55;1.80;;;1.70;;
68657;SDS011;55639;53.480;-2.228;2022-09-02T05:57:21;1.45;;;1.35;;
68657;SDS011;55639;53.480;-2.228;2022-09-02T05:59:48;1.58;;;1.48;;
68657;SDS011;55639;53.480;-2.228;2022-09-02T06:02:20;1.50;;;1.40;;
68657;SDS011;55639;53.480;-2.228;2022-09-02T06:04:46;1.50;;;1.40;;
68657;SDS011;55639;53.480;-2.228;2022-09-02T06:07:14;1.45;;;1.35;;
68657;SDS011;55639;53.480;-2.228;2022-09-02T06:09:41;1.58;;;1.48;;
68657;SDS011;55639;53.480;-2.228;2022-09-02T06:12:08;1.70;;;1.60;;
68657;SDS011;55639;53.480;-2.228;2022-09-02T06:14:38;1.75;;;1.63;;
68657;SDS011;55639;53.480;-2.228;2022-09-02T06:17:05;1.63;;;1.52;;
68657;SDS011;55639;53.480;-2.228;2022-09-02T06:19:31;1.60;;;1.50;;
68657;SDS011;55639;53.480;-2.228;2022-09-02T06:21:57;1.70;;;1.60;;
68657;SDS011;55639;53.480;-2.228;2022-09-02T06:24:25;1.75;;;1.65;;
68657;SDS011;55639;53.480;-2.228;2022-09-02T06:26:51;1.60;;;1.50;;
68657;SDS011;55639;53.480;-2.228;2022-09-02T06:29:18;1.70;;;1.60;;
68657;SDS011;55639;53.480;-2.228;2022-09-02T06:31:46;1.50;;;1.40;;
68657;SDS011;55639;53.480;-2.228;2022-09-02T06:34:13;1.80;;;1.70;;
68657;SDS011;55639;53.480;-2.228;2022-09-02T06:36:41;1.75;;;1.65;;
68657;SDS011;55639;53.480;-2.228;2022-09-02T06:39:10;1.55;;;1.45;;
68657;SDS011;55639;53.480;-2.228;2022-09-02T06:41:37;1.95;;;1.80;;
68657;SDS011;55639;53.480;-2.228;2022-09-02T06:44:04;1.58;;;1.48;;
68657;SDS011;55639;53.480;-2.228;2022-09-02T06:46:32;1.83;;;1.70;;
68657;SDS011;55639;53.480;-2.228;2022-09-02T06:49:00;2.17;;;2.00;;
68657;SDS011;55639;53.480;-2.228;2022-09-02T06:51:29;1.65;;;1.55;;
68657;SDS011;55639;53.480;-2.228;2022-09-02T06:53:57;1.70;;;1.60;;
68657;SDS011;55639;53.480;-2.228;2022-09-02T06:56:23;1.73;;;1.63;;
68657;SDS011;55639;53.480;-2.228;2022-09-02T06:58:50;2.70;;;1.83;;
68657;SDS011;55639;53.480;-2.228;2022-09-02T07:01:19;2.15;;;1.95;;
68657;SDS011;55639;53.480;-2.228;2022-09-02T07:03:47;1.92;;;1.80;;
68657;SDS011;55639;53.480;-2.228;2022-09-02T07:06:35;1.88;;;1.75;;
68657;SDS011;55639;53.480;-2.228;2022-09-02T07:09:04;1.85;;;1.75;;
68657;SDS011;55639;53.480;-2.228;2022-09-02T07:11:30;2.05;;;1.95;;
68657;SDS011;55639;53.480;-2.228;2022-09-02T07:13:57;2.15;;;2.05;;
68657;SDS011;55639;53.480;-2.228;2022-09-02T07:16:29;1.98;;;1.80;;
68657;SDS011;55639;53.480;-2.228;2022-09-02T07:18:57;2.03;;;1.90;;
68657;SDS011;55639;53.480;-2.228;2022-09-02T07:21:25;1.90;;;1.80;;
68657;SDS011;55639;53.480;-2.228;2022-09-02T07:23:52;2.40;;;2.20;;
68657;SDS011;55639;53.480;-2.228;2022-09-02T07:26:19;2.05;;;1.83;;
68657;SDS011;55639;53.480;-2.228;2022-09-02T07:28:45;1.90;;;1.80;;
68657;SDS011;55639;53.480;-2.228;2022-09-02T07:31:12;2.20;;;2.00;;
68657;SDS011;55639;53.480;-2.228;2022-09-02T07:33:39;2.20;;;2.00;;
68657;SDS011;55639;53.480;-2.228;2022-09-02T07:36:06;2.25;;;2.05;;
68657;SDS011;55639;53.480;-2.228;2022-09-02T07:38:34;2.97;;;2.20;;
68657;SDS011;55639;53.480;-2.228;2022-09-02T07:41:01;2.72;;;2.30;;
68657;SDS011;55639;53.480;-2.228;2022-09-02T07:43:28;2.30;;;2.10;;
68657;SDS011;55639;53.480;-2.228;2022-09-02T07:45:55;2.72;;;2.45;;
68657;SDS011;55639;53.480;-2.228;2022-09-02T07:48:24;2.70;;;2.17;;
68657;SDS011;55639;53.480;-2.228;2022-09-02T07:50:51;2.50;;;2.30;;
68657;SDS011;55639;53.480;-2.228;2022-09-02T07:53:17;2.40;;;2.20;;
68657;SDS011;55639;53.480;-2.228;2022-09-02T07:55:44;2.67;;;2.47;;
68657;SDS011;55639;53.480;-2.228;2022-09-02T07:58:11;4.35;;;2.80;;
68657;SDS011;55639;53.480;-2.228;2022-09-02T08:00:39;2.65;;;2.45;;
68657;SDS011;55639;53.480;-2.228;2022-09-02T08:03:06;3.40;;;2.38;;
68657;SDS011;55639;53.480;-2.228;2022-09-02T08:05:32;3.10;;;2.80;;
68657;SDS011;55639;53.480;-2.228;2022-09-02T08:07:58;3.55;;;2.90;;
68657;SDS011;55639;53.480;-2.228;2022-09-02T08:10:24;3.55;;;2.83;;
68657;SDS011;55639;53.480;-2.228;2022-09-02T08:12:53;3.13;;;2.53;;
68657;SDS011;55639;53.480;-2.228;2022-09-02T08:15:21;3.70;;;2.75;;
68657;SDS011;55639;53.480;-2.228;2022-09-02T08:17:47;3.45;;;2.95;;
68657;SDS011;55639;53.480;-2.228;2022-09-02T08:20:13;4.28;;;3.10;;
68657;SDS011;55639;53.480;-2.228;2022-09-02T08:22:41;4.35;;;3.58;;
68657;SDS011;55639;53.480;-2.228;2022-09-02T08:25:06;4.63;;;3.30;;
68657;SDS011;55639;53.480;-2.228;2022-09-02T08:27:33;4.20;;;3.00;;
68657;SDS011;55639;53.480;-2.228;2022-09-02T08:29:59;3.22;;;2.90;;
68657;SDS011;55639;53.480;-2.228;2022-09-02T08:32:26;4.07;;;3.40;;
68657;SDS011;55639;53.480;-2.228;2022-09-02T08:34:56;4.47;;;3.17;;
68657;SDS011;55639;53.480;-2.228;2022-09-02T08:37:23;3.53;;;2.92;;
68657;SDS011;55639;53.480;-2.228;2022-09-02T08:39:51;3.58;;;3.00;;
68657;SDS011;55639;53.480;-2.228;2022-09-02T08:42:21;3.67;;;3.38;;
68657;SDS011;55639;53.480;-2.228;2022-09-02T08:44:54;3.33;;;2.92;;
68657;SDS011;55639;53.480;-2.228;2022-09-02T08:47:28;4.80;;;3.08;;
68657;SDS011;55639;53.480;-2.228;2022-09-02T08:50:02;4.25;;;3.40;;
68657;SDS011;55639;53.480;-2.228;2022-09-02T08:52:41;3.85;;;3.38;;
68657;SDS011;55639;53.480;-2.228;2022-09-02T08:55:25;3.58;;;3.28;;
68657;SDS011;55639;53.480;-2.228;2022-09-02T08:57:56;3.88;;;3.58;;
68657;SDS011;55639;53.480;-2.228;2022-09-02T09:00:22;4.20;;;3.50;;
68657;SDS011;55639;53.480;-2.228;2022-09-02T09:05:41;3.85;;;3.28;;
68657;SDS011;55639;53.480;-2.228;2022-09-02T09:08:50;4.22;;;3.60;;
68657;SDS011;55639;53.480;-2.228;2022-09-02T09:17:24;3.78;;;3.47;;
68657;SDS011;55639;53.480;-2.228;2022-09-02T09:19:54;4.10;;;3.55;;
68657;SDS011;55639;53.480;-2.228;2022-09-02T09:22:26;3.70;;;3.30;;
68657;SDS011;55639;53.480;-2.228;2022-09-02T09:24:57;4.05;;;3.65;;
68657;SDS011;55639;53.480;-2.228;2022-09-02T09:27:23;3.85;;;3.50;;
68657;SDS011;55639;53.480;-2.228;2022-09-02T09:29:49;3.47;;;3.17;;
68657;SDS011;55639;53.480;-2.228;2022-09-02T09:42:46;4.78;;;3.40;;
68657;SDS011;55639;53.480;-2.228;2022-09-02T09:45:15;4.28;;;3.88;;
68657;SDS011;55639;53.480;-2.228;2022-09-02T09:48:05;3.70;;;3.40;;
68657;SDS011;55639;53.480;-2.228;2022-09-02T09:50:47;4.32;;;3.90;;
68657;SDS011;55639;53.480;-2.228;2022-09-02T09:53:34;4.20;;;3.80;;
68657;SDS011;55639;53.480;-2.228;2022-09-02T09:56:05;4.22;;;3.75;;
68657;SDS011;55639;53.480;-2.228;2022-09-02T10:03:47;4.13;;;3.70;;
68657;SDS011;55639;53.480;-2.228;2022-09-02T10:11:29;3.80;;;3.30;;
68657;SDS011;55639;53.480;-2.228;2022-09-02T10:14:04;4.18;;;3.55;;
68657;SDS011;55639;53.480;-2.228;2022-09-02T10:27:39;4.07;;;3.30;;
68657;SDS011;55639;53.480;-2.228;2022-09-02T10:30:18;4.22;;;2.92;;
68657;SDS011;55639;53.480;-2.228;2022-09-02T10:32:49;5.28;;;3.50;;
68657;SDS011;55639;53.480;-2.228;2022-09-02T10:35:32;3.40;;;2.90;;
68657;SDS011;55639;53.480;-2.228;2022-09-02T10:44:01;3.72;;;2.90;;
68657;SDS011;55639;53.480;-2.228;2022-09-02T10:46:33;4.60;;;2.70;;
68657;SDS011;55639;53.480;-2.228;2022-09-02T10:57:44;5.82;;;3.15;;
68657;SDS011;55639;53.480;-2.228;2022-09-02T11:00:15;6.88;;;2.88;;
68657;SDS011;55639;53.480;-2.228;2022-09-02T11:05:54;6.57;;;2.78;;
68657;SDS011;55639;53.480;-2.228;2022-09-02T11:10:55;4.35;;;2.58;;
68657;SDS011;55639;53.480;-2.228;2022-09-02T11:13:30;4.05;;;2.40;;
68657;SDS011;55639;53.480;-2.228;2022-09-02T11:16:04;3.88;;;2.60;;
68657;SDS011;55639;53.480;-2.228;2022-09-02T11:18:47;4.50;;;2.10;;
68657;SDS011;55639;53.480;-2.228;2022-09-02T11:21:28;3.63;;;2.33;;
68657;SDS011;55639;53.480;-2.228;2022-09-02T11:24:35;4.93;;;2.20;;
68657;SDS011;55639;53.480;-2.228;2022-09-02T11:30:03;2.75;;;1.90;;
68657;SDS011;55639;53.480;-2.228;2022-09-02T11:32:40;2.90;;;2.03;;
68657;SDS011;55639;53.480;-2.228;2022-09-02T11:35:34;3.45;;;1.98;;
68657;SDS011;55639;53.480;-2.228;2022-09-02T11:38:04;2.95;;;2.25;;
68657;SDS011;55639;53.480;-2.228;2022-09-02T11:40:57;3.35;;;1.90;;
68657;SDS011;55639;53.480;-2.228;2022-09-02T11:43:46;3.53;;;2.05;;
68657;SDS011;55639;53.480;-2.228;2022-09-02T11:49:04;3.80;;;1.50;;
68657;SDS011;55639;53.480;-2.228;2022-09-02T11:51:50;2.13;;;1.58;;
68657;SDS011;55639;53.480;-2.228;2022-09-02T11:54:30;2.25;;;1.60;;
68657;SDS011;55639;53.480;-2.228;2022-09-02T11:57:10;2.03;;;1.58;;
68657;SDS011;55639;53.480;-2.228;2022-09-02T12:08:02;1.52;;;1.42;;
68657;SDS011;55639;53.480;-2.228;2022-09-02T12:21:18;4.57;;;1.50;;
68657;SDS011;55639;53.480;-2.228;2022-09-02T12:26:22;1.55;;;1.10;;
68657;SDS011;55639;53.480;-2.228;2022-09-02T12:28:50;1.90;;;1.30;;
68657;SDS011;55639;53.480;-2.228;2022-09-02T12:36:50;1.75;;;1.33;;
68657;SDS011;55639;53.480;-2.228;2022-09-02T12:44:32;1.67;;;1.10;;
68657;SDS011;55639;53.480;-2.228;2022-09-02T12:50:05;2.40;;;1.00;;
68657;SDS011;55639;53.480;-2.228;2022-09-02T12:52:38;1.38;;;1.08;;
68657;SDS011;55639;53.480;-2.228;2022-09-02T12:55:13;2.03;;;1.20;;
68657;SDS011;55639;53.480;-2.228;2022-09-02T12:57:44;1.95;;;1.20;;
68657;SDS011;55639;53.480;-2.228;2022-09-02T13:05:57;3.58;;;1.40;;
68657;SDS011;55639;53.480;-2.228;2022-09-02T13:09:12;2.15;;;1.55;;
68657;SDS011;55639;53.480;-2.228;2022-09-02T13:14:45;1.77;;;1.23;;
68657;SDS011;55639;53.480;-2.228;2022-09-02T13:32:09;1.52;;;1.05;;
68657;SDS011;55639;53.480;-2.228;2022-09-02T13:34:40;1.77;;;1.17;;
68657;SDS011;55639;53.480;-2.228;2022-09-02T13:39:58;1.35;;;1.00;;
68657;SDS011;55639;53.480;-2.228;2022-09-02T13:42:26;2.17;;;1.00;;
68657;SDS011;55639;53.480;-2.228;2022-09-02T13:45:07;1.70;;;1.02;;
68657;SDS011;55639;53.480;-2.228;2022-09-02T13:47:34;1.50;;;1.25;;
68657;SDS011;55639;53.480;-2.228;2022-09-02T13:50:00;2.22;;;1.15;;
68657;SDS011;55639;53.480;-2.228;2022-09-02T13:52:26;1.60;;;1.20;;
68657;SDS011;55639;53.480;-2.228;2022-09-02T13:54:54;1.95;;;0.98;;
68657;SDS011;55639;53.480;-2.228;2022-09-02T13:57:23;2.80;;;1.40;;
68657;SDS011;55639;53.480;-2.228;2022-09-02T13:59:52;2.22;;;1.30;;
68657;SDS011;55639;53.480;-2.228;2022-09-02T14:02:20;1.58;;;1.08;;
68657;SDS011;55639;53.480;-2.228;2022-09-02T14:05:11;1.42;;;1.00;;
68657;SDS011;55639;53.480;-2.228;2022-09-02T14:07:40;2.50;;;1.10;;
68657;SDS011;55639;53.480;-2.228;2022-09-02T14:10:10;4.10;;;1.40;;
68657;SDS011;55639;53.480;-2.228;2022-09-02T14:12:39;2.53;;;1.20;;
68657;SDS011;55639;53.480;-2.228;2022-09-02T14:15:07;3.50;;;1.60;;
68657;SDS011;55639;53.480;-2.228;2022-09-02T14:17:36;1.40;;;1.10;;
68657;SDS011;55639;53.480;-2.228;2022-09-02T14:22:54;1.55;;;1.10;;
68657;SDS011;55639;53.480;-2.228;2022-09-02T14:25:21;2.88;;;1.27;;
68657;SDS011;55639;53.480;-2.228;2022-09-02T14:27:52;3.47;;;1.27;;
68657;SDS011;55639;53.480;-2.228;2022-09-02T14:33:14;2.13;;;1.47;;
68657;SDS011;55639;53.480;-2.228;2022-09-02T14:35:40;4.25;;;1.35;;
68657;SDS011;55639;53.480;-2.228;2022-09-02T14:38:06;2.90;;;1.55;;
68657;SDS011;55639;53.480;-2.228;2022-09-02T14:40:38;4.45;;;1.60;;
68657;SDS011;55639;53.480;-2.228;2022-09-02T14:43:10;2.25;;;1.23;;
68657;SDS011;55639;53.480;-2.228;2022-09-02T14:45:38;2.33;;;1.23;;
68657;SDS011;55639;53.480;-2.228;2022-09-02T14:48:21;1.83;;;1.45;;
68657;SDS011;55639;53.480;-2.228;2022-09-02T14:50:56;2.35;;;1.40;;
68657;SDS011;55639;53.480;-2.228;2022-09-02T14:53:24;2.38;;;1.60;;
68657;SDS011;55639;53.480;-2.228;2022-09-02T14:55:51;1.92;;;1.45;;
68657;SDS011;55639;53.480;-2.228;2022-09-02T14:58:19;2.30;;;1.48;;
68657;SDS011;55639;53.480;-2.228;2022-09-02T15:00:47;3.45;;;1.25;;
68657;SDS011;55639;53.480;-2.228;2022-09-02T15:03:19;2.15;;;1.40;;
68657;SDS011;55639;53.480;-2.228;2022-09-02T15:05:45;2.22;;;1.20;;
68657;SDS011;55639;53.480;-2.228;2022-09-02T15:08:11;2.70;;;1.50;;
68657;SDS011;55639;53.480;-2.228;2022-09-02T15:10:38;1.90;;;1.20;;
68657;SDS011;55639;53.480;-2.228;2022-09-02T15:13:05;2.15;;;1.40;;
68657;SDS011;55639;53.480;-2.228;2022-09-02T15:15:36;1.83;;;1.13;;
68657;SDS011;55639;53.480;-2.228;2022-09-02T15:18:02;2.85;;;1.30;;
68657;SDS011;55639;53.480;-2.228;2022-09-02T15:20:29;1.77;;;1.20;;
68657;SDS011;55639;53.480;-2.228;2022-09-02T15:22:58;3.15;;;1.45;;
68657;SDS011;55639;53.480;-2.228;2022-09-02T15:25:23;1.20;;;1.10;;
68657;SDS011;55639;53.480;-2.228;2022-09-02T15:27:49;2.08;;;1.35;;
68657;SDS011;55639;53.480;-2.228;2022-09-02T15:30:15;2.15;;;1.42;;
68657;SDS011;55639;53.480;-2.228;2022-09-02T15:32:41;2.42;;;1.40;;
68657;SDS011;55639;53.480;-2.228;2022-09-02T15:35:07;3.75;;;1.55;;
68657;SDS011;55639;53.480;-2.228;2022-09-02T15:37:34;1.85;;;1.20;;
68657;SDS011;55639;53.480;-2.228;2022-09-02T15:40:02;2.35;;;1.20;;
68657;SDS011;55639;53.480;-2.228;2022-09-02T15:42:32;1.52;;;1.42;;
68657;SDS011;55639;53.480;-2.228;2022-09-02T15:45:02;1.75;;;1.27;;
68657;SDS011;55639;53.480;-2.228;2022-09-02T15:47:29;1.83;;;1.30;;
68657;SDS011;55639;53.480;-2.228;2022-09-02T15:49:55;3.25;;;1.50;;
68657;SDS011;55639;53.480;-2.228;2022-09-02T15:52:24;2.20;;;1.52;;
68657;SDS011;55639;53.480;-2.228;2022-09-02T15:54:50;2.58;;;1.50;;
68657;SDS011;55639;53.480;-2.228;2022-09-02T15:57:18;1.45;;;1.20;;
68657;SDS011;55639;53.480;-2.228;2022-09-02T15:59:45;2.58;;;1.70;;
68657;SDS011;55639;53.480;-2.228;2022-09-02T16:02:11;2.17;;;1.58;;
68657;SDS011;55639;53.480;-2.228;2022-09-02T16:04:37;1.67;;;1.33;;
68657;SDS011;55639;53.480;-2.228;2022-09-02T16:07:02;1.55;;;1.38;;
68657;SDS011;55639;53.480;-2.228;2022-09-02T16:09:28;3.58;;;1.60;;
68657;SDS011;55639;53.480;-2.228;2022-09-02T16:11:54;2.70;;;1.48;;
68657;SDS011;55639;53.480;-2.228;2022-09-02T16:14:22;2.42;;;1.40;;
68657;SDS011;55639;53.480;-2.228;2022-09-02T16:16:49;1.77;;;1.55;;
68657;SDS011;55639;53.480;-2.228;2022-09-02T16:19:18;1.90;;;1.50;;
68657;SDS011;55639;53.480;-2.228;2022-09-02T16:21:45;3.85;;;1.90;;
68657;SDS011;55639;53.480;-2.228;2022-09-02T16:24:11;1.70;;;1.58;;
68657;SDS011;55639;53.480;-2.228;2022-09-02T16:26:38;2.40;;;1.70;;
68657;SDS011;55639;53.480;-2.228;2022-09-02T16:29:06;2.00;;;1.40;;
68657;SDS011;55639;53.480;-2.228;2022-09-02T16:31:34;3.92;;;1.90;;
68657;SDS011;55639;53.480;-2.228;2022-09-02T16:34:03;2.75;;;1.80;;
68657;SDS011;55639;53.480;-2.228;2022-09-02T16:36:31;1.98;;;1.52;;
68657;SDS011;55639;53.480;-2.228;2022-09-02T16:38:59;3.65;;;1.70;;
68657;SDS011;55639;53.480;-2.228;2022-09-02T16:41:32;1.90;;;1.48;;
68657;SDS011;55639;53.480;-2.228;2022-09-02T16:44:03;2.00;;;1.50;;
68657;SDS011;55639;53.480;-2.228;2022-09-02T16:46:31;2.22;;;1.50;;
68657;SDS011;55639;53.480;-2.228;2022-09-02T16:48:58;3.83;;;1.58;;
68657;SDS011;55639;53.480;-2.228;2022-09-02T16:51:24;3.63;;;1.60;;
68657;SDS011;55639;53.480;-2.228;2022-09-02T16:53:55;8.02;;;1.83;;
68657;SDS011;55639;53.480;-2.228;2022-09-02T16:56:22;5.63;;;1.90;;
68657;SDS011;55639;53.480;-2.228;2022-09-02T16:58:49;6.07;;;1.75;;